createdAt,value
2018-09-01T00:00:16.475Z,18.00
2018-09-01T00:02:44.089Z,18.00
2018-09-01T00:05:11.696Z,17.90
2018-09-01T00:07:39.244Z,18.00
2018-09-01T00:10:06.882Z,17.90
2018-09-01T00:12:34.405Z,17.90
2018-09-01T00:15:01.885Z,18.00
2018-09-01T00:17:30.526Z,17.90
2018-09-01T00:20:00.760Z,17.90
2018-09-01T00:22:28.371Z,17.90
2018-09-01T00:24:55.872Z,17.90
2018-09-01T00:27:23.806Z,18.00
2018-09-01T00:29:51.687Z,17.90
2018-09-01T00:32:19.860Z,18.00
2018-09-01T00:34:47.441Z,17.90
2018-09-01T00:37:24.407Z,18.00
2018-09-01T00:39:52.009Z,18.00
2018-09-01T00:42:19.697Z,17.90
2018-09-01T00:44:47.245Z,17.90
2018-09-01T00:47:14.798Z,17.90
2018-09-01T00:49:42.441Z,17.90
2018-09-01T00:52:09.933Z,17.90
2018-09-01T00:54:37.492Z,17.90
2018-09-01T00:57:05.254Z,17.90
2018-09-01T00:59:32.771Z,18.00
2018-09-01T01:02:00.287Z,18.00
2018-09-01T01:04:27.812Z,18.00
2018-09-01T01:06:55.337Z,18.00
2018-09-01T01:09:22.879Z,18.00
2018-09-01T01:11:50.509Z,18.00
2018-09-01T01:14:18.031Z,18.00
2018-09-01T01:16:45.531Z,18.00
2018-09-01T01:19:13.126Z,18.00
2018-09-01T01:21:40.647Z,18.00
2018-09-01T01:24:08.188Z,18.00
2018-09-01T01:26:35.759Z,18.00
2018-09-01T01:29:03.351Z,18.00
2018-09-01T01:31:30.896Z,18.00
2018-09-01T01:33:58.393Z,18.00
2018-09-01T01:36:25.933Z,18.00
2018-09-01T01:38:53.443Z,18.00
2018-09-01T01:41:20.923Z,18.00
2018-09-01T01:43:48.477Z,18.00
2018-09-01T01:46:16.015Z,18.00
2018-09-01T01:48:43.488Z,18.00
2018-09-01T01:51:11.378Z,18.00
2018-09-01T01:53:38.878Z,18.00
2018-09-01T01:56:06.512Z,18.00
2018-09-01T01:58:34.026Z,17.90
2018-09-01T02:01:01.553Z,17.90
2018-09-01T02:03:29.064Z,17.90
2018-09-01T02:05:56.616Z,17.90
2018-09-01T02:08:24.127Z,17.90
2018-09-01T02:10:51.629Z,17.90
2018-09-01T02:13:19.144Z,17.90
2018-09-01T02:15:46.683Z,17.90
2018-09-01T02:18:14.218Z,17.90
2018-09-01T02:20:41.754Z,17.90
2018-09-01T02:23:09.259Z,17.80
2018-09-01T02:25:36.774Z,17.80
2018-09-01T02:28:04.303Z,17.80
2018-09-01T02:30:31.782Z,17.80
2018-09-01T02:32:59.475Z,17.80
2018-09-01T02:35:27.013Z,17.80
2018-09-01T02:37:54.553Z,17.80
2018-09-01T02:40:22.058Z,17.80
2018-09-01T02:42:49.615Z,17.80
2018-09-01T02:45:17.117Z,17.80
2018-09-01T02:47:44.659Z,17.80
2018-09-01T02:50:12.141Z,17.80
2018-09-01T02:52:39.701Z,17.80
2018-09-01T02:55:07.222Z,17.70
2018-09-01T02:57:34.704Z,17.70
2018-09-01T03:00:04.926Z,17.70
2018-09-01T03:02:38.142Z,17.70
2018-09-01T03:05:05.724Z,17.70
2018-09-01T03:07:33.227Z,17.60
2018-09-01T03:10:00.744Z,17.60
2018-09-01T03:12:28.261Z,17.60
2018-09-01T03:14:55.767Z,17.60
2018-09-01T03:17:23.268Z,17.60
2018-09-01T03:19:50.770Z,17.60
2018-09-01T03:22:18.245Z,17.60
2018-09-01T03:24:45.790Z,17.50
2018-09-01T03:27:13.269Z,17.50
2018-09-01T03:29:40.750Z,17.50
2018-09-01T03:32:08.476Z,17.50
2018-09-01T03:34:35.981Z,17.50
2018-09-01T03:37:03.491Z,17.50
2018-09-01T03:39:31.025Z,17.50
2018-09-01T03:41:58.512Z,17.60
2018-09-01T03:44:26.022Z,17.50
2018-09-01T03:46:53.529Z,17.50
2018-09-01T03:49:21.163Z,17.50
2018-09-01T03:51:48.626Z,17.50
2018-09-01T03:54:16.142Z,17.50
2018-09-01T03:56:43.639Z,17.50
2018-09-01T03:59:11.212Z,17.50
2018-09-01T04:01:38.715Z,17.50
2018-09-01T04:04:06.221Z,17.50
2018-09-01T04:06:33.720Z,17.50
2018-09-01T04:09:01.353Z,17.50
2018-09-01T04:11:28.841Z,17.50
2018-09-01T04:13:56.367Z,17.50
2018-09-01T04:16:23.900Z,17.50
2018-09-01T04:18:51.392Z,17.50
2018-09-01T04:21:18.921Z,17.50
2018-09-01T04:23:46.430Z,17.50
2018-09-01T04:26:13.952Z,17.50
2018-09-01T04:28:41.455Z,17.50
2018-09-01T04:31:08.989Z,17.50
2018-09-01T04:33:36.549Z,17.60
2018-09-01T04:36:04.205Z,17.50
2018-09-01T04:38:31.716Z,17.50
2018-09-01T04:40:59.479Z,17.60
2018-09-01T04:43:27.075Z,17.50
2018-09-01T04:45:54.611Z,17.60
2018-09-01T04:48:22.113Z,17.50
2018-09-01T04:50:49.670Z,17.50
2018-09-01T04:53:17.175Z,17.50
2018-09-01T04:55:44.675Z,17.50
2018-09-01T04:58:12.162Z,17.50
2018-09-01T05:00:39.698Z,17.50
2018-09-01T05:03:07.235Z,17.50
2018-09-01T05:05:34.711Z,17.50
2018-09-01T05:08:02.290Z,17.50
2018-09-01T05:10:29.765Z,17.60
2018-09-01T05:12:57.252Z,17.60
2018-09-01T05:15:24.781Z,17.50
2018-09-01T05:17:52.288Z,17.60
2018-09-01T05:20:19.780Z,17.60
2018-09-01T05:22:47.307Z,17.60
2018-09-01T05:25:14.871Z,17.60
2018-09-01T05:27:42.360Z,17.60
2018-09-01T05:30:09.929Z,17.70
2018-09-01T05:32:37.457Z,17.70
2018-09-01T05:35:05.114Z,17.70
2018-09-01T05:37:32.691Z,17.70
2018-09-01T05:40:00.226Z,17.70
2018-09-01T05:42:27.757Z,17.70
2018-09-01T05:44:55.287Z,17.70
2018-09-01T05:47:22.837Z,17.70
2018-09-01T05:49:50.374Z,17.80
2018-09-01T05:52:17.902Z,17.80
2018-09-01T05:54:45.371Z,17.80
2018-09-01T05:57:12.890Z,17.80
2018-09-01T05:59:40.376Z,17.90
2018-09-01T06:02:07.888Z,17.90
2018-09-01T06:04:35.349Z,17.90
2018-09-01T06:07:02.972Z,17.90
2018-09-01T06:09:30.511Z,18.00
2018-09-01T06:11:58.039Z,18.00
2018-09-01T06:14:25.553Z,18.00
2018-09-01T06:16:53.079Z,18.00
2018-09-01T06:19:20.685Z,18.00
2018-09-01T06:21:48.164Z,18.00
2018-09-01T06:24:15.654Z,18.00
2018-09-01T06:26:43.174Z,18.10
2018-09-01T06:29:13.744Z,18.00
2018-09-01T06:31:44.681Z,18.00
2018-09-01T06:34:12.225Z,18.10
2018-09-01T06:36:39.718Z,18.00
2018-09-01T06:39:07.681Z,18.10
2018-09-01T06:41:35.243Z,18.10
2018-09-01T06:44:02.930Z,18.10
2018-09-01T06:46:30.454Z,18.10
2018-09-01T06:48:58.019Z,18.20
2018-09-01T06:51:25.589Z,18.30
2018-09-01T06:53:53.098Z,18.30
2018-09-01T06:56:20.692Z,18.30
2018-09-01T06:58:48.736Z,18.30
2018-09-01T07:01:16.252Z,18.30
2018-09-01T07:03:43.820Z,18.30
2018-09-01T07:06:11.370Z,18.30
2018-09-01T07:08:38.923Z,18.30
2018-09-01T07:11:06.782Z,18.40
2018-09-01T07:13:34.306Z,18.40
2018-09-01T07:16:01.853Z,18.40
2018-09-01T07:18:29.368Z,18.40
2018-09-01T07:20:56.877Z,18.40
2018-09-01T07:23:24.402Z,18.50
2018-09-01T07:25:51.936Z,18.60
2018-09-01T07:28:19.488Z,18.60
2018-09-01T07:30:47.321Z,18.80
2018-09-01T07:33:14.596Z,18.80
2018-09-01T07:35:42.152Z,18.80
2018-09-01T07:38:09.676Z,18.80
2018-09-01T07:40:37.229Z,18.80
2018-09-01T07:43:04.768Z,18.90
2018-09-01T07:45:32.322Z,18.90
2018-09-01T07:48:00.021Z,18.90
2018-09-01T07:50:27.585Z,18.90
2018-09-01T07:52:55.118Z,19.00
2018-09-01T07:55:22.670Z,19.00
2018-09-01T07:57:50.212Z,19.10
2018-09-01T08:00:17.774Z,19.20
2018-09-01T08:02:45.378Z,19.30
2018-09-01T08:05:12.904Z,19.40
2018-09-01T08:07:40.478Z,19.60
2018-09-01T08:10:08.570Z,19.70
2018-09-01T08:12:36.059Z,19.80
2018-09-01T08:15:03.745Z,19.90
2018-09-01T08:17:31.261Z,20.10
2018-09-01T08:19:58.869Z,20.10
2018-09-01T08:22:26.429Z,20.10
2018-09-01T08:24:53.963Z,20.10
2018-09-01T08:27:21.514Z,20.10
2018-09-01T08:29:49.072Z,20.10
2018-09-01T08:32:16.623Z,20.00
2018-09-01T08:34:44.161Z,19.90
2018-09-01T08:37:11.710Z,19.90
2018-09-01T08:39:39.265Z,19.90
2018-09-01T08:42:06.788Z,19.80
2018-09-01T08:44:34.360Z,19.90
2018-09-01T08:47:02.003Z,19.90
2018-09-01T08:49:29.558Z,19.90
2018-09-01T08:51:57.118Z,19.90
2018-09-01T08:54:24.671Z,20.00
2018-09-01T08:56:52.581Z,19.90
2018-09-01T08:59:20.193Z,19.90
2018-09-01T09:01:47.848Z,19.90
2018-09-01T09:04:15.414Z,20.10
2018-09-01T09:06:42.990Z,20.10
2018-09-01T09:09:10.581Z,20.20
2018-09-01T09:11:38.177Z,20.30
2018-09-01T09:14:05.880Z,20.30
2018-09-01T09:16:33.429Z,20.40
2018-09-01T09:19:01.075Z,20.40
2018-09-01T09:21:28.658Z,20.40
2018-09-01T09:23:56.221Z,20.40
2018-09-01T09:26:23.774Z,20.40
2018-09-01T09:28:51.327Z,20.50
2018-09-01T09:31:18.862Z,20.60
2018-09-01T09:33:46.404Z,20.70
2018-09-01T09:36:14.019Z,20.80
2018-09-01T09:38:41.569Z,20.80
2018-09-01T09:41:09.148Z,20.80
2018-09-01T09:43:36.773Z,20.90
2018-09-01T09:46:04.447Z,21.10
2018-09-01T09:48:31.963Z,21.40
2018-09-01T09:50:59.516Z,21.60
2018-09-01T09:53:27.090Z,21.70
2018-09-01T09:55:54.646Z,21.60
2018-09-01T09:58:22.346Z,21.30
2018-09-01T10:00:55.351Z,21.10
2018-09-01T10:03:22.859Z,20.90
2018-09-01T10:05:50.368Z,20.80
2018-09-01T10:08:17.897Z,20.80
2018-09-01T10:10:45.509Z,20.90
2018-09-01T10:13:13.020Z,20.90
2018-09-01T10:15:40.601Z,20.90
2018-09-01T10:18:08.165Z,20.90
2018-09-01T10:20:35.772Z,21.00
2018-09-01T10:23:03.284Z,21.10
2018-09-01T10:25:30.857Z,21.30
2018-09-01T10:27:58.397Z,21.50
2018-09-01T10:30:25.951Z,21.70
2018-09-01T10:32:53.512Z,21.90
2018-09-01T10:35:21.059Z,22.00
2018-09-01T10:37:48.593Z,22.10
2018-09-01T10:40:16.175Z,22.10
2018-09-01T10:42:43.689Z,22.00
2018-09-01T10:45:11.239Z,22.00
2018-09-01T10:47:38.841Z,21.90
2018-09-01T10:50:06.443Z,21.70
2018-09-01T10:52:34.012Z,21.70
2018-09-01T10:55:01.561Z,21.60
2018-09-01T10:57:29.102Z,21.60
2018-09-01T10:59:56.659Z,21.70
2018-09-01T11:02:24.209Z,21.70
2018-09-01T11:04:51.750Z,21.90
2018-09-01T11:07:19.283Z,22.00
2018-09-01T11:09:46.816Z,22.00
2018-09-01T11:12:14.382Z,22.00
2018-09-01T11:14:41.879Z,22.00
2018-09-01T11:17:09.468Z,21.80
2018-09-01T11:19:37.117Z,21.80
2018-09-01T11:22:04.961Z,21.80
2018-09-01T11:24:32.525Z,21.90
2018-09-01T11:27:00.108Z,22.10
2018-09-01T11:29:27.632Z,22.20
2018-09-01T11:31:55.207Z,22.10
2018-09-01T11:34:22.721Z,22.00
2018-09-01T11:36:50.356Z,21.80
2018-09-01T11:39:17.885Z,21.70
2018-09-01T11:41:45.400Z,21.60
2018-09-01T11:44:12.958Z,21.50
2018-09-01T11:46:40.501Z,21.40
2018-09-01T11:49:08.034Z,21.30
2018-09-01T11:51:35.604Z,21.30
2018-09-01T11:54:03.148Z,21.30
2018-09-01T11:56:30.741Z,21.30
2018-09-01T11:58:58.465Z,21.30
2018-09-01T12:01:25.976Z,21.40
2018-09-01T12:03:53.560Z,21.60
2018-09-01T12:06:21.145Z,21.60
2018-09-01T12:08:48.758Z,21.70
2018-09-01T12:11:16.294Z,21.80
2018-09-01T12:13:43.811Z,21.80
2018-09-01T12:16:11.401Z,21.90
2018-09-01T12:18:38.959Z,21.90
2018-09-01T12:21:06.522Z,21.90
2018-09-01T12:23:34.114Z,21.80
2018-09-01T12:26:01.629Z,21.70
2018-09-01T12:28:29.217Z,21.70
2018-09-01T12:30:56.779Z,21.70
2018-09-01T12:33:24.406Z,21.70
2018-09-01T12:35:51.944Z,21.70
2018-09-01T12:38:19.893Z,21.70
2018-09-01T12:40:47.390Z,21.70
2018-09-01T12:43:14.974Z,21.60
2018-09-01T12:45:42.525Z,21.60
2018-09-01T12:48:10.063Z,21.50
2018-09-01T12:50:37.615Z,21.50
2018-09-01T12:53:05.273Z,21.40
2018-09-01T12:55:32.791Z,21.40
2018-09-01T12:58:00.400Z,21.40
2018-09-01T13:00:27.961Z,21.40
2018-09-01T13:02:55.551Z,21.30
2018-09-01T13:05:23.114Z,21.30
2018-09-01T13:07:50.828Z,21.20
2018-09-01T13:10:18.429Z,21.20
2018-09-01T13:12:45.996Z,21.20
2018-09-01T13:15:13.638Z,21.10
2018-09-01T13:17:41.183Z,21.10
2018-09-01T13:20:08.713Z,21.20
2018-09-01T13:22:36.286Z,21.10
2018-09-01T13:25:03.901Z,21.20
2018-09-01T13:27:31.426Z,21.20
2018-09-01T13:29:59.038Z,21.20
2018-09-01T13:32:26.589Z,21.20
2018-09-01T13:34:54.401Z,21.30
2018-09-01T13:37:21.962Z,21.40
2018-09-01T13:39:49.567Z,21.50
2018-09-01T13:42:17.147Z,21.70
2018-09-01T13:44:44.738Z,21.90
2018-09-01T13:47:12.269Z,22.10
2018-09-01T13:49:39.814Z,22.20
2018-09-01T13:52:07.355Z,22.30
2018-09-01T13:54:34.888Z,22.40
2018-09-01T13:57:02.434Z,22.60
2018-09-01T13:59:29.977Z,22.60
2018-09-01T14:01:57.545Z,22.60
2018-09-01T14:04:25.148Z,22.60
2018-09-01T14:06:52.738Z,22.60
2018-09-01T14:09:20.281Z,22.60
2018-09-01T14:11:47.897Z,22.50
2018-09-01T14:14:15.571Z,22.40
2018-09-01T14:16:43.089Z,22.40
2018-09-01T14:19:10.614Z,22.40
2018-09-01T14:21:38.156Z,22.40
2018-09-01T14:24:05.743Z,22.40
2018-09-01T14:26:33.270Z,22.30
2018-09-01T14:29:00.851Z,22.20
2018-09-01T14:31:28.430Z,22.00
2018-09-01T14:33:55.950Z,21.90
2018-09-01T14:36:23.611Z,21.80
2018-09-01T14:38:51.249Z,21.80
2018-09-01T14:41:18.848Z,21.80
2018-09-01T14:43:46.530Z,21.70
2018-09-01T14:46:14.665Z,21.50
2018-09-01T14:48:42.217Z,21.40
2018-09-01T14:51:09.854Z,21.30
2018-09-01T14:53:37.413Z,21.20
2018-09-01T14:56:04.992Z,21.20
2018-09-01T14:58:32.606Z,21.10
2018-09-01T15:01:00.195Z,21.20
2018-09-01T15:03:27.745Z,21.20
2018-09-01T15:05:55.501Z,21.20
2018-09-01T15:08:23.074Z,21.20
2018-09-01T15:10:50.623Z,21.20
2018-09-01T15:13:18.203Z,21.20
2018-09-01T15:15:45.759Z,21.20
2018-09-01T15:18:13.329Z,21.10
2018-09-01T15:20:40.961Z,21.10
2018-09-01T15:23:08.529Z,21.00
2018-09-01T15:25:36.052Z,21.00
2018-09-01T15:28:03.627Z,20.90
2018-09-01T15:30:31.170Z,20.80
2018-09-01T15:32:58.769Z,20.70
2018-09-01T15:35:26.395Z,20.70
2018-09-01T15:37:53.909Z,20.70
2018-09-01T15:40:21.473Z,20.70
2018-09-01T15:42:49.003Z,20.60
2018-09-01T15:45:16.622Z,20.60
2018-09-01T15:47:44.228Z,20.60
2018-09-01T15:50:11.752Z,20.60
2018-09-01T15:52:39.337Z,20.50
2018-09-01T15:55:07.170Z,20.40
2018-09-01T15:57:34.716Z,20.40
2018-09-01T16:00:02.349Z,20.30
2018-09-01T16:02:29.844Z,20.30
2018-09-01T16:04:57.469Z,20.30
2018-09-01T16:07:25.029Z,20.30
2018-09-01T16:09:52.541Z,20.30
2018-09-01T16:12:20.087Z,20.30
2018-09-01T16:14:47.635Z,20.30
2018-09-01T16:17:15.229Z,20.30
2018-09-01T16:19:42.804Z,20.20
2018-09-01T16:22:10.384Z,20.20
2018-09-01T16:24:38.017Z,20.20
2018-09-01T16:27:05.492Z,20.20
2018-09-01T16:29:33.062Z,20.20
2018-09-01T16:32:00.611Z,20.10
2018-09-01T16:34:28.253Z,20.10
2018-09-01T16:36:55.889Z,20.10
2018-09-01T16:39:23.482Z,20.10
2018-09-01T16:41:51.058Z,20.00
2018-09-01T16:44:18.650Z,20.00
2018-09-01T16:46:46.211Z,20.00
2018-09-01T16:49:13.777Z,20.00
2018-09-01T16:51:41.313Z,20.00
2018-09-01T16:54:08.847Z,20.00
2018-09-01T16:56:36.372Z,19.90
2018-09-01T16:59:04.064Z,19.90
2018-09-01T17:01:31.656Z,19.90
2018-09-01T17:03:59.261Z,19.80
2018-09-01T17:06:26.871Z,19.80
2018-09-01T17:08:54.455Z,19.70
2018-09-01T17:11:22.009Z,19.70
2018-09-01T17:13:49.621Z,19.70
2018-09-01T17:16:17.184Z,19.60
2018-09-01T17:18:44.774Z,19.60
2018-09-01T17:21:12.368Z,19.60
2018-09-01T17:23:39.975Z,19.50
2018-09-01T17:26:07.523Z,19.50
2018-09-01T17:28:35.058Z,19.40
2018-09-01T17:31:02.722Z,19.40
2018-09-01T17:33:30.348Z,19.30
2018-09-01T17:35:57.880Z,19.30
2018-09-01T17:38:25.450Z,19.30
2018-09-01T17:40:53.011Z,19.30
2018-09-01T17:43:20.601Z,19.20
2018-09-01T17:45:48.485Z,19.20
2018-09-01T17:48:16.115Z,19.20
2018-09-01T17:50:43.999Z,19.20
2018-09-01T17:53:11.542Z,19.10
2018-09-01T17:55:39.089Z,19.10
2018-09-01T17:58:07.505Z,19.10
2018-09-01T18:00:35.126Z,19.10
2018-09-01T18:03:02.711Z,19.00
2018-09-01T18:05:30.303Z,19.00
2018-09-01T18:07:57.850Z,19.00
2018-09-01T18:10:25.535Z,19.00
2018-09-01T18:12:53.156Z,19.00
2018-09-01T18:15:20.759Z,19.00
2018-09-01T18:17:48.513Z,19.00
2018-09-01T18:20:16.106Z,19.00
2018-09-01T18:22:44.326Z,18.90
2018-09-01T18:25:11.884Z,18.90
2018-09-01T18:27:39.532Z,18.90
2018-09-01T18:30:07.866Z,18.90
2018-09-01T18:32:35.519Z,18.80
2018-09-01T18:35:03.201Z,18.80
2018-09-01T18:37:30.828Z,18.80
2018-09-01T18:39:58.485Z,18.80
2018-09-01T18:42:26.167Z,18.80
2018-09-01T18:44:53.776Z,18.80
2018-09-01T18:47:21.373Z,18.70
2018-09-01T18:49:48.954Z,18.70
2018-09-01T18:52:16.539Z,18.70
2018-09-01T18:54:44.061Z,18.70
2018-09-01T18:57:11.669Z,18.70
2018-09-01T18:59:39.327Z,18.60
2018-09-01T19:02:07.275Z,18.60
2018-09-01T19:04:34.905Z,18.60
2018-09-01T19:07:02.754Z,18.60
2018-09-01T19:09:30.398Z,18.60
2018-09-01T19:11:57.987Z,18.60
2018-09-01T19:14:25.694Z,18.60
2018-09-01T19:16:53.309Z,18.60
2018-09-01T19:19:20.916Z,18.60
2018-09-01T19:21:48.505Z,18.60
2018-09-01T19:24:16.117Z,18.60
2018-09-01T19:26:43.828Z,18.50
2018-09-01T19:29:11.617Z,18.50
2018-09-01T19:31:39.732Z,18.50
2018-09-01T19:34:07.562Z,18.50
2018-09-01T19:36:35.256Z,18.50
2018-09-01T19:39:04.277Z,18.40
2018-09-01T19:41:31.901Z,18.40
2018-09-01T19:43:59.516Z,18.40
2018-09-01T19:46:27.128Z,18.40
2018-09-01T19:48:54.858Z,18.40
2018-09-01T19:51:22.516Z,18.40
2018-09-01T19:53:50.125Z,18.30
2018-09-01T19:56:17.775Z,18.30
2018-09-01T19:58:46.264Z,18.30
2018-09-01T20:01:13.914Z,18.30
2018-09-01T20:03:41.576Z,18.30
2018-09-01T20:06:09.252Z,18.30
2018-09-01T20:08:36.898Z,18.30
2018-09-01T20:11:05.659Z,18.30
2018-09-01T20:13:33.470Z,18.30
2018-09-01T20:16:01.217Z,18.30
2018-09-01T20:18:29.432Z,18.30
2018-09-01T20:20:57.194Z,18.20
2018-09-01T20:23:24.912Z,18.20
2018-09-01T20:25:52.615Z,18.20
2018-09-01T20:28:20.204Z,18.20
2018-09-01T20:30:47.882Z,18.20
2018-09-01T20:33:15.474Z,18.20
2018-09-01T20:35:48.765Z,18.20
2018-09-01T20:38:16.444Z,18.20
2018-09-01T20:40:44.243Z,18.10
2018-09-01T20:43:11.819Z,18.10
2018-09-01T20:45:40.098Z,18.10
2018-09-01T20:48:07.744Z,18.00
2018-09-01T20:50:35.363Z,18.00
2018-09-01T20:53:03.054Z,18.00
2018-09-01T20:55:30.683Z,18.00
2018-09-01T20:57:58.320Z,18.00
2018-09-01T21:00:25.933Z,18.00
2018-09-01T21:02:53.473Z,17.90
2018-09-01T21:05:21.022Z,17.90
2018-09-01T21:07:48.627Z,17.90
2018-09-01T21:10:16.209Z,17.90
2018-09-01T21:12:43.810Z,18.00
2018-09-01T21:15:11.382Z,18.00
2018-09-01T21:17:38.963Z,18.00
2018-09-01T21:20:07.087Z,17.90
2018-09-01T21:22:34.634Z,17.90
2018-09-01T21:25:02.253Z,17.90
2018-09-01T21:27:29.876Z,17.90
2018-09-01T21:29:57.415Z,17.90
2018-09-01T21:32:24.947Z,17.90
2018-09-01T21:34:52.711Z,17.90
2018-09-01T21:37:20.331Z,17.90
2018-09-01T21:39:47.906Z,17.90
2018-09-01T21:42:15.474Z,17.90
2018-09-01T21:44:42.995Z,17.90
2018-09-01T21:47:10.606Z,17.90
2018-09-01T21:49:38.294Z,17.90
2018-09-01T21:52:06.019Z,17.90
2018-09-01T21:54:33.566Z,17.90
2018-09-01T21:57:01.151Z,17.90
2018-09-01T21:59:28.733Z,17.80
2018-09-01T22:02:01.878Z,17.80
2018-09-01T22:04:34.911Z,17.80
2018-09-01T22:07:02.799Z,17.80
2018-09-01T22:09:30.293Z,17.80
2018-09-01T22:11:57.805Z,17.80
2018-09-01T22:14:25.386Z,17.80
2018-09-01T22:16:52.946Z,17.80
2018-09-01T22:19:20.692Z,17.80
2018-09-01T22:21:48.426Z,17.80
2018-09-01T22:24:15.954Z,17.90
2018-09-01T22:26:43.450Z,17.90
2018-09-01T22:29:11.149Z,17.80
2018-09-01T22:31:38.816Z,17.80
2018-09-01T22:34:06.403Z,17.80
2018-09-01T22:36:33.986Z,17.80
2018-09-01T22:39:01.546Z,17.90
2018-09-01T22:41:29.096Z,17.80
2018-09-01T22:43:56.770Z,17.90
2018-09-01T22:46:24.381Z,17.80
2018-09-01T22:48:51.920Z,17.80
2018-09-01T22:51:19.429Z,17.80
2018-09-01T22:53:46.983Z,17.80
2018-09-01T22:56:14.484Z,17.80
2018-09-01T22:58:42.018Z,17.80
2018-09-01T23:01:09.572Z,17.80
2018-09-01T23:03:37.106Z,17.80
2018-09-01T23:06:04.640Z,17.80
2018-09-01T23:08:32.236Z,17.70
2018-09-01T23:10:59.802Z,17.70
2018-09-01T23:13:27.428Z,17.70
2018-09-01T23:15:55.034Z,17.70
2018-09-01T23:18:22.603Z,17.70
2018-09-01T23:20:50.165Z,17.70
2018-09-01T23:23:17.730Z,17.60
2018-09-01T23:25:45.268Z,17.60
2018-09-01T23:28:12.893Z,17.60
2018-09-01T23:30:40.536Z,17.60
2018-09-01T23:33:08.076Z,17.60
2018-09-01T23:35:35.602Z,17.60
2018-09-01T23:38:03.222Z,17.60
2018-09-01T23:40:30.761Z,17.60
2018-09-01T23:42:58.311Z,17.60
2018-09-01T23:45:25.848Z,17.60
2018-09-01T23:47:53.435Z,17.60
2018-09-01T23:50:20.940Z,17.60
2018-09-01T23:52:48.462Z,17.50
2018-09-01T23:55:16.177Z,17.50
2018-09-01T23:57:43.706Z,17.50
